createdAt,value
2024-04-11T00:00:44.997Z,8.60
2024-04-11T00:03:12.431Z,8.80
2024-04-11T00:05:41.336Z,6.70
2024-04-11T00:08:08.653Z,8.60
2024-04-11T00:10:36.037Z,7.40
2024-04-11T00:13:03.351Z,7.60
2024-04-11T00:15:30.725Z,6.50
2024-04-11T00:17:58.090Z,7.60
2024-04-11T00:20:25.564Z,10.20
2024-04-11T00:22:53.738Z,6.20
2024-04-11T00:25:21.128Z,8.10
2024-04-11T00:27:49.275Z,7.60
2024-04-11T00:30:16.874Z,6.60
2024-04-11T00:32:44.441Z,7.30
2024-04-11T00:35:11.995Z,6.90
2024-04-11T00:37:39.364Z,7.50
2024-04-11T00:40:07.700Z,9.00
2024-04-11T00:42:35.237Z,5.70
2024-04-11T00:45:02.693Z,6.00
2024-04-11T00:47:30.879Z,9.10
2024-04-11T00:49:58.443Z,6.10
2024-04-11T00:52:26.665Z,6.80
2024-04-11T00:54:54.044Z,7.10
2024-04-11T00:57:22.019Z,6.50
2024-04-11T00:59:50.031Z,8.00
2024-04-11T01:02:17.978Z,6.20
2024-04-11T01:04:45.541Z,7.60
2024-04-11T01:07:14.072Z,7.10
2024-04-11T01:09:46.053Z,7.90
2024-04-11T01:12:19.160Z,5.60
2024-04-11T01:14:52.222Z,6.90
2024-04-11T01:17:21.844Z,7.60
2024-04-11T01:19:49.410Z,7.70
2024-04-11T01:22:19.471Z,4.90
2024-04-11T01:24:47.067Z,6.00
2024-04-11T01:27:17.832Z,7.00
2024-04-11T01:29:45.311Z,6.80
2024-04-11T01:32:14.777Z,5.70
2024-04-11T01:34:42.677Z,5.90
2024-04-11T01:37:10.232Z,5.80
2024-04-11T01:39:38.284Z,6.70
2024-04-11T01:42:06.836Z,7.30
2024-04-11T01:44:34.448Z,7.90
2024-04-11T01:47:01.805Z,6.40
2024-04-11T01:49:32.830Z,4.70
2024-04-11T01:52:00.213Z,6.10
2024-04-11T01:54:27.580Z,9.70
2024-04-11T01:56:55.129Z,7.60
2024-04-11T01:59:22.581Z,5.10
2024-04-11T02:01:49.918Z,5.90
2024-04-11T02:04:17.266Z,6.30
2024-04-11T02:06:44.730Z,6.00
2024-04-11T02:09:13.364Z,7.10
2024-04-11T02:11:44.405Z,7.90
2024-04-11T02:14:12.869Z,8.10
2024-04-11T02:16:40.940Z,5.30
2024-04-11T02:19:08.895Z,9.40
2024-04-11T02:21:44.078Z,8.50
2024-04-11T02:24:17.521Z,6.50
2024-04-11T02:26:49.412Z,6.50
2024-04-11T02:29:19.405Z,8.20
2024-04-11T02:31:49.942Z,6.80
2024-04-11T02:34:20.326Z,7.90
2024-04-11T02:36:50.640Z,8.30
2024-04-11T02:39:18.620Z,6.40
2024-04-11T02:41:47.368Z,7.50
2024-04-11T02:44:21.206Z,9.00
2024-04-11T02:46:48.776Z,7.30
2024-04-11T02:49:16.402Z,6.60
2024-04-11T02:51:44.704Z,7.60
2024-04-11T02:54:12.164Z,8.70
2024-04-11T02:56:40.020Z,7.10
2024-04-11T02:59:07.446Z,10.40
2024-04-11T03:01:34.805Z,7.20
2024-04-11T03:04:03.516Z,5.90
2024-04-11T03:06:34.503Z,7.10
2024-04-11T03:09:02.878Z,6.10
2024-04-11T03:11:30.562Z,8.80
2024-04-11T03:13:59.175Z,7.30
2024-04-11T03:16:31.086Z,5.00
2024-04-11T03:18:58.770Z,8.80
2024-04-11T03:21:26.242Z,6.00
2024-04-11T03:23:54.484Z,6.70
2024-04-11T03:26:21.979Z,7.90
2024-04-11T03:28:49.436Z,7.80
2024-04-11T03:31:19.953Z,7.10
2024-04-11T03:33:48.038Z,5.20
2024-04-11T03:36:15.776Z,9.20
2024-04-11T03:38:43.412Z,8.00
2024-04-11T03:41:12.869Z,9.60
2024-04-11T03:43:42.723Z,6.80
2024-04-11T03:46:20.463Z,9.40
2024-04-11T03:48:58.054Z,6.40
2024-04-11T03:51:34.815Z,8.20
2024-04-11T03:54:02.679Z,8.60
2024-04-11T03:56:30.831Z,8.20
2024-04-11T03:58:59.613Z,6.90
2024-04-11T04:01:29.230Z,7.10
2024-04-11T04:04:05.898Z,8.90
2024-04-11T04:06:36.526Z,7.90
2024-04-11T04:09:11.763Z,8.80
2024-04-11T04:11:42.963Z,6.90
2024-04-11T04:14:12.254Z,5.90
2024-04-11T04:16:40.010Z,9.70
2024-04-11T04:19:08.407Z,8.90
2024-04-11T04:21:37.271Z,6.40
2024-04-11T04:24:07.581Z,10.20
2024-04-11T04:26:36.718Z,6.80
2024-04-11T04:29:05.652Z,7.30
2024-04-11T04:31:35.072Z,9.40
2024-04-11T04:34:10.289Z,6.80
2024-04-11T04:36:44.742Z,7.90
2024-04-11T04:39:17.316Z,6.10
2024-04-11T04:41:45.824Z,4.90
2024-04-11T04:44:13.861Z,9.90
2024-04-11T04:46:42.688Z,6.90
2024-04-11T04:49:11.437Z,7.90
2024-04-11T04:51:40.263Z,7.40
2024-04-11T04:54:12.494Z,7.30
2024-04-11T04:56:42.910Z,8.60
2024-04-11T04:59:10.829Z,6.90
2024-04-11T05:01:38.309Z,8.50
2024-04-11T05:04:07.330Z,20.00
2024-04-11T05:06:34.977Z,8.00
2024-04-11T05:09:02.526Z,8.80
2024-04-11T05:11:36.643Z,8.60
2024-04-11T05:14:08.594Z,9.50
2024-04-11T05:16:37.192Z,8.20
2024-04-11T05:19:05.341Z,10.70
2024-04-11T05:21:34.056Z,8.60
2024-04-11T05:24:02.010Z,10.30
2024-04-11T05:26:30.262Z,8.60
2024-04-11T05:28:59.208Z,11.50
2024-04-11T05:31:27.570Z,7.70
2024-04-11T05:34:01.240Z,8.20
2024-04-11T05:36:31.799Z,14.50
2024-04-11T05:39:00.064Z,6.40
2024-04-11T05:41:27.726Z,10.40
2024-04-11T05:43:57.427Z,11.80
2024-04-11T05:46:24.812Z,10.30
2024-04-11T05:48:52.630Z,10.80
2024-04-11T05:51:22.193Z,9.40
2024-04-11T05:53:51.198Z,9.90
2024-04-11T05:56:19.509Z,10.20
2024-04-11T05:58:50.726Z,11.10
2024-04-11T06:01:18.988Z,12.60
2024-04-11T06:03:48.566Z,11.80
2024-04-11T06:06:17.027Z,11.20
2024-04-11T06:08:45.018Z,8.40
2024-04-11T06:11:13.833Z,11.60
2024-04-11T06:13:42.327Z,10.90
2024-04-11T06:16:10.813Z,8.80
2024-04-11T06:18:39.903Z,9.80
2024-04-11T06:21:07.572Z,9.80
2024-04-11T06:23:36.597Z,9.80
2024-04-11T06:26:11.407Z,9.80
2024-04-11T06:28:40.043Z,10.40
2024-04-11T06:31:10.394Z,10.00
2024-04-11T06:33:42.351Z,7.30
2024-04-11T06:36:18.238Z,13.10
2024-04-11T06:38:45.730Z,9.60
2024-04-11T06:41:20.431Z,11.80
2024-04-11T06:43:48.918Z,11.40
2024-04-11T06:46:22.940Z,7.80
2024-04-11T06:48:50.876Z,13.40
2024-04-11T06:51:20.731Z,11.90
2024-04-11T06:53:48.255Z,10.60
2024-04-11T06:56:18.928Z,9.60
2024-04-11T06:58:50.018Z,10.40
2024-04-11T07:03:50.522Z,8.30
2024-04-11T07:06:23.243Z,12.20
2024-04-11T07:08:56.179Z,13.30
2024-04-11T07:11:28.570Z,9.90
2024-04-11T07:13:58.982Z,7.60
2024-04-11T07:16:30.326Z,14.00
2024-04-11T07:18:59.262Z,13.30
2024-04-11T07:21:31.763Z,8.40
2024-04-11T07:24:00.386Z,10.10
2024-04-11T07:26:32.571Z,13.40
2024-04-11T07:29:02.938Z,10.10
2024-04-11T07:31:32.901Z,10.30
2024-04-11T07:34:06.332Z,10.30
2024-04-11T07:36:40.861Z,11.60
2024-04-11T07:39:10.371Z,9.80
2024-04-11T07:41:47.903Z,13.40
2024-04-11T07:44:24.749Z,7.40
2024-04-11T07:47:05.952Z,12.50
2024-04-11T07:49:42.764Z,9.20
2024-04-11T08:08:36.622Z,8.00
2024-04-11T08:11:06.356Z,8.90
2024-04-11T08:13:38.023Z,9.40
2024-04-11T08:16:10.475Z,8.60
2024-04-11T08:18:40.962Z,10.10
2024-04-11T08:21:12.316Z,7.40
2024-04-11T08:23:40.722Z,9.00
2024-04-11T08:26:08.744Z,5.90
2024-04-11T08:28:38.446Z,7.70
2024-04-11T08:31:10.597Z,7.10
2024-04-11T08:33:39.916Z,10.00
2024-04-11T08:36:11.598Z,9.10
2024-04-11T08:38:44.939Z,7.40
2024-04-11T08:41:13.653Z,8.20
2024-04-11T08:43:46.409Z,9.50
2024-04-11T08:46:14.054Z,6.30
2024-04-11T08:48:42.354Z,11.00
2024-04-11T08:51:24.064Z,9.60
2024-04-11T08:56:30.190Z,8.00
2024-04-11T08:58:58.071Z,9.20
2024-04-11T09:01:25.931Z,6.30
2024-04-11T09:03:54.505Z,9.40
2024-04-11T09:06:29.669Z,11.60
2024-04-11T09:09:08.433Z,10.90
2024-04-11T09:11:36.697Z,7.60
2024-04-11T09:14:04.206Z,9.50
2024-04-11T09:16:34.680Z,6.90
2024-04-11T09:19:10.143Z,7.20
2024-04-11T09:21:47.356Z,8.20
2024-04-11T09:24:18.737Z,9.20
2024-04-11T09:26:51.179Z,6.70
2024-04-11T09:29:21.157Z,8.60
2024-04-11T09:31:51.446Z,13.90
2024-04-11T09:34:21.955Z,9.80
2024-04-11T09:36:53.296Z,8.50
2024-04-11T09:39:54.706Z,9.00
2024-04-11T09:42:27.059Z,5.60
2024-04-11T09:44:56.693Z,10.70
2024-04-11T09:47:30.088Z,7.00
2024-04-11T09:50:02.188Z,6.00
2024-04-11T09:52:39.331Z,7.30
2024-04-11T09:55:11.565Z,11.20
2024-04-11T09:57:46.049Z,10.80
2024-04-11T10:00:39.810Z,8.70
2024-04-11T10:03:08.666Z,7.50
2024-04-11T10:05:41.301Z,7.50
2024-04-11T10:08:17.857Z,8.00
2024-04-11T10:10:54.262Z,8.20
2024-04-11T10:13:23.976Z,8.60
2024-04-11T10:16:05.761Z,9.30
2024-04-11T10:18:47.781Z,9.60
2024-04-11T10:21:33.806Z,7.20
2024-04-11T10:24:15.954Z,8.10
2024-04-11T10:26:56.057Z,7.80
2024-04-11T10:29:27.824Z,7.80
2024-04-11T10:31:59.557Z,5.90
2024-04-11T10:34:35.782Z,7.10
2024-04-11T10:37:09.321Z,6.70
2024-04-11T10:39:37.000Z,6.10
2024-04-11T10:42:08.760Z,6.90
2024-04-11T10:44:37.313Z,6.60
2024-04-11T10:47:08.789Z,8.20
2024-04-11T10:49:39.097Z,6.30
2024-04-11T10:52:11.243Z,7.20
2024-04-11T10:54:46.888Z,11.40
2024-04-11T10:57:15.081Z,6.80
2024-04-11T10:59:52.287Z,8.00
2024-04-11T11:02:24.160Z,7.60
2024-04-11T11:04:55.832Z,6.90
2024-04-11T11:07:32.799Z,6.60
2024-04-11T11:10:00.673Z,9.80
2024-04-11T11:12:28.179Z,6.10
2024-04-11T11:14:55.632Z,7.80
2024-04-11T11:17:23.145Z,9.40
2024-04-11T11:19:51.510Z,8.00
2024-04-11T11:22:31.480Z,8.70
2024-04-11T11:25:01.997Z,8.20
2024-04-11T11:27:34.430Z,9.30
2024-04-11T11:30:07.220Z,9.20
2024-04-11T11:32:37.317Z,5.40
2024-04-11T11:35:06.791Z,7.00
2024-04-11T11:37:34.023Z,8.80
2024-04-11T11:40:19.982Z,9.50
2024-04-11T11:42:47.653Z,7.60
2024-04-11T11:45:27.732Z,9.00
2024-04-11T11:47:58.805Z,7.70
2024-04-11T11:50:36.653Z,7.10
2024-04-11T11:53:25.096Z,7.30
2024-04-11T11:56:04.881Z,6.00
2024-04-11T11:58:36.180Z,6.40
2024-04-11T12:03:48.126Z,9.80
2024-04-11T12:06:15.619Z,6.10
2024-04-11T12:08:44.847Z,9.80
2024-04-11T12:11:12.457Z,7.80
2024-04-11T12:13:44.013Z,8.50
2024-04-11T12:16:17.011Z,9.80
2024-04-11T12:18:49.258Z,9.60
2024-04-11T12:21:35.540Z,6.80
2024-04-11T12:24:03.472Z,7.60
2024-04-11T12:26:34.246Z,9.20
2024-04-11T12:29:05.893Z,6.10
2024-04-11T12:31:36.962Z,10.60
2024-04-11T12:36:51.583Z,6.90
2024-04-11T12:39:33.639Z,5.90
2024-04-11T12:42:02.248Z,6.70
2024-04-11T12:44:37.086Z,5.50
2024-04-11T12:47:14.915Z,7.80
2024-04-11T12:49:49.616Z,8.90
2024-04-11T12:52:24.926Z,7.70
2024-04-11T12:55:01.638Z,8.00
2024-04-11T12:57:30.339Z,7.20
2024-04-11T13:00:30.656Z,7.40
2024-04-11T13:03:17.296Z,12.10
2024-04-11T13:05:53.130Z,8.00
2024-04-11T13:10:56.462Z,6.40
2024-04-11T13:13:31.076Z,5.00
2024-04-11T13:16:01.475Z,6.80
2024-04-11T13:18:32.099Z,6.10
2024-04-11T13:20:59.657Z,11.40
2024-04-11T13:23:27.577Z,7.30
2024-04-11T13:25:58.931Z,8.40
2024-04-11T13:28:32.257Z,5.30
2024-04-11T13:30:59.896Z,9.50
2024-04-11T13:33:32.372Z,9.70
2024-04-11T13:36:05.380Z,6.10
2024-04-11T13:38:39.013Z,8.70
2024-04-11T13:41:25.734Z,6.30
2024-04-11T13:43:53.457Z,7.60
2024-04-11T13:46:31.690Z,10.90
2024-04-11T13:49:08.581Z,7.00
2024-04-11T13:51:36.997Z,7.60
2024-04-11T13:54:08.895Z,7.20
2024-04-11T13:56:40.250Z,6.70
2024-04-11T13:59:10.719Z,6.50
2024-04-11T14:01:45.000Z,7.20
2024-04-11T14:04:18.760Z,6.70
2024-04-11T14:06:52.255Z,5.50
2024-04-11T14:09:21.482Z,7.80
2024-04-11T14:11:49.983Z,6.60
2024-04-11T14:14:22.557Z,7.40
2024-04-11T14:16:54.535Z,9.50
2024-04-11T14:19:37.073Z,6.20
2024-04-11T14:22:23.207Z,7.10
2024-04-11T14:24:59.648Z,6.20
2024-04-11T14:27:31.486Z,9.50
2024-04-11T14:30:02.628Z,5.30
2024-04-11T14:32:51.714Z,4.80
2024-04-11T14:35:28.192Z,6.20
2024-04-11T14:38:08.396Z,4.40
2024-04-11T14:40:40.884Z,6.60
2024-04-11T14:43:12.027Z,6.70
2024-04-11T14:45:41.406Z,5.90
2024-04-11T14:48:19.932Z,6.90
2024-04-11T14:50:59.686Z,7.80
2024-04-11T14:53:27.406Z,6.90
2024-04-11T14:55:56.992Z,6.60
2024-04-11T14:58:31.690Z,9.20
2024-04-11T15:01:15.557Z,6.30
2024-04-11T15:03:46.674Z,7.60
2024-04-11T15:06:15.043Z,9.70
2024-04-11T15:08:42.557Z,6.40
2024-04-11T15:11:13.213Z,5.40
2024-04-11T15:13:41.114Z,5.90
2024-04-11T15:16:11.791Z,6.70
2024-04-11T15:21:16.888Z,7.00
2024-04-11T15:23:46.862Z,6.00
2024-04-11T15:26:14.497Z,5.50
2024-04-11T15:28:53.686Z,7.20
2024-04-11T15:31:30.724Z,7.00
2024-04-11T15:34:08.560Z,5.50
2024-04-11T15:37:15.897Z,7.60
2024-04-11T15:39:45.359Z,6.00
2024-04-11T15:42:12.828Z,5.30
2024-04-11T15:44:47.820Z,6.10
2024-04-11T15:47:16.739Z,6.30
2024-04-11T15:49:44.745Z,5.50
2024-04-11T15:52:12.183Z,6.40
2024-04-11T15:54:57.104Z,6.80
2024-04-11T15:57:32.087Z,6.10
2024-04-11T16:00:12.088Z,6.00
2024-04-11T16:02:44.747Z,4.60
2024-04-11T16:05:35.580Z,6.20
2024-04-11T16:08:12.570Z,5.80
2024-04-11T16:10:42.683Z,6.50
2024-04-11T16:13:15.772Z,6.50
2024-04-11T16:15:45.295Z,5.30
2024-04-11T16:18:18.104Z,5.90
2024-04-11T16:20:48.636Z,6.60
2024-04-11T16:23:20.400Z,5.80
2024-04-11T16:25:52.903Z,5.50
2024-04-11T16:28:20.321Z,4.90
2024-04-11T16:31:06.608Z,6.20
2024-04-11T16:33:35.767Z,6.30
2024-04-11T16:36:04.981Z,7.30
2024-04-11T16:38:48.485Z,5.50
2024-04-11T16:41:21.588Z,7.10
2024-04-11T16:43:55.234Z,5.90
2024-04-11T16:46:38.373Z,6.00
2024-04-11T16:49:06.461Z,5.30
2024-04-11T16:51:34.081Z,5.20
2024-04-11T16:54:19.601Z,6.70
2024-04-11T16:56:50.258Z,6.00
2024-04-11T16:59:32.429Z,5.40
2024-04-11T17:02:01.893Z,6.70
2024-04-11T17:04:36.510Z,5.50
2024-04-11T17:07:16.792Z,5.30
2024-04-11T17:09:55.958Z,5.30
2024-04-11T17:12:32.984Z,4.80
2024-04-11T17:15:01.726Z,10.50
2024-04-11T17:17:38.297Z,5.60
2024-04-11T17:20:19.334Z,4.70
2024-04-11T17:22:54.627Z,6.60
2024-04-11T17:25:33.842Z,6.10
2024-04-11T17:28:08.285Z,5.70
2024-04-11T17:30:54.723Z,6.60
2024-04-11T17:33:32.363Z,6.10
2024-04-11T17:36:00.542Z,5.60
2024-04-11T17:39:03.967Z,5.70
2024-04-11T17:41:39.559Z,5.50
2024-04-11T17:44:14.785Z,7.10
2024-04-11T17:47:15.247Z,4.30
2024-04-11T17:49:57.098Z,9.90
2024-04-11T17:52:40.437Z,6.90
2024-04-11T17:55:25.286Z,6.10
2024-04-11T17:57:56.749Z,5.90
2024-04-11T18:00:32.657Z,8.80
2024-04-11T18:03:02.163Z,4.30
2024-04-11T18:05:30.793Z,7.70
2024-04-11T18:08:04.982Z,5.90
2024-04-11T18:10:46.238Z,6.20
2024-04-11T18:15:51.248Z,4.30
2024-04-11T18:18:21.394Z,6.00
2024-04-11T18:20:52.268Z,9.00
2024-04-11T18:23:21.977Z,7.60
2024-04-11T18:25:49.574Z,6.10
2024-04-11T18:28:17.021Z,6.10
2024-04-11T18:30:54.728Z,5.40
2024-04-11T18:33:29.874Z,5.90
2024-04-11T18:35:59.323Z,6.40
2024-04-11T18:38:28.862Z,7.60
2024-04-11T18:41:12.198Z,6.30
2024-04-11T18:43:44.845Z,7.00
2024-04-11T18:46:19.867Z,8.90
2024-04-11T18:48:52.356Z,7.30
2024-04-11T18:51:24.066Z,7.30
2024-04-11T18:53:51.458Z,7.30
2024-04-11T18:56:45.343Z,8.00
2024-04-11T18:59:14.232Z,6.50
2024-04-11T19:01:41.769Z,6.80
2024-04-11T19:04:35.295Z,5.50
2024-04-11T19:07:14.682Z,7.20
2024-04-11T19:09:55.825Z,6.30
2024-04-11T19:12:26.340Z,6.20
2024-04-11T19:14:59.790Z,8.20
2024-04-11T19:17:29.777Z,7.30
2024-04-11T19:20:01.840Z,8.90
2024-04-11T19:22:31.832Z,9.30
2024-04-11T19:24:59.854Z,5.30
2024-04-11T19:27:29.677Z,5.70
2024-04-11T19:30:00.603Z,7.90
2024-04-11T19:32:28.650Z,6.40
2024-04-11T19:34:57.550Z,7.30
2024-04-11T19:37:25.061Z,8.90
2024-04-11T19:39:58.038Z,6.70
2024-04-11T19:42:30.827Z,7.10
2024-04-11T19:45:04.305Z,8.30
2024-04-11T19:47:33.578Z,9.80
2024-04-11T19:50:02.395Z,7.10
2024-04-11T19:52:31.079Z,8.50
2024-04-11T19:55:21.836Z,9.10
2024-04-11T19:57:50.047Z,7.90
2024-04-11T20:00:38.581Z,10.10
2024-04-11T20:03:30.655Z,11.40
2024-04-11T20:06:08.982Z,11.30
2024-04-11T20:08:39.751Z,12.70
2024-04-11T20:11:12.239Z,12.20
2024-04-11T20:13:45.962Z,12.60
2024-04-11T20:16:24.387Z,13.30
2024-04-11T20:18:57.337Z,12.80
2024-04-11T20:21:25.168Z,9.70
2024-04-11T20:23:58.411Z,11.60
2024-04-11T20:26:31.575Z,12.30
2024-04-11T20:29:06.329Z,11.80
2024-04-11T20:31:34.453Z,11.50
2024-04-11T20:34:08.426Z,11.90
2024-04-11T20:36:40.413Z,9.90
2024-04-11T20:39:11.724Z,10.30
2024-04-11T20:41:43.000Z,12.60
2024-04-11T20:44:10.345Z,11.40
2024-04-11T20:46:57.862Z,16.70
2024-04-11T20:50:00.669Z,10.40
2024-04-11T20:52:46.682Z,9.80
2024-04-11T20:55:32.986Z,11.20
2024-04-11T20:58:18.819Z,12.60
2024-04-11T21:01:05.397Z,12.90
2024-04-11T21:03:52.022Z,14.30
2024-04-11T21:06:38.418Z,10.10
2024-04-11T21:09:24.550Z,13.40
2024-04-11T21:12:10.705Z,10.80
2024-04-11T21:14:57.080Z,12.90
2024-04-11T21:17:43.566Z,12.00
2024-04-11T21:20:29.742Z,11.50
2024-04-11T21:23:15.556Z,13.00
2024-04-11T21:26:03.462Z,10.70
2024-04-11T21:28:49.711Z,11.50
2024-04-11T21:31:35.737Z,13.70
2024-04-11T21:34:07.185Z,11.00
2024-04-11T21:36:34.554Z,16.30
2024-04-11T21:39:01.959Z,16.90
2024-04-11T21:41:29.516Z,17.90
2024-04-11T21:43:57.524Z,16.30
2024-04-11T21:46:42.653Z,14.60
2024-04-11T21:49:19.352Z,18.00
2024-04-11T21:51:48.417Z,18.30
2024-04-11T21:54:15.750Z,18.70
2024-04-11T21:56:43.443Z,15.60
2024-04-11T21:59:15.658Z,17.60
2024-04-11T22:01:48.419Z,14.50
2024-04-11T22:04:20.402Z,19.20
2024-04-11T22:06:57.300Z,17.30
2024-04-11T22:09:26.469Z,16.80
2024-04-11T22:12:00.839Z,17.00
2024-04-11T22:14:32.805Z,15.00
2024-04-11T22:17:01.847Z,16.10
2024-04-11T22:22:14.323Z,14.50
2024-04-11T22:24:47.041Z,13.80
2024-04-11T22:27:15.982Z,15.10
2024-04-11T22:29:47.308Z,12.00
2024-04-11T22:32:15.440Z,16.50
2024-04-11T22:34:47.403Z,15.30
2024-04-11T22:40:00.799Z,12.00
2024-04-11T22:42:36.131Z,10.50
2024-04-11T22:45:11.072Z,12.90
2024-04-11T22:47:40.130Z,15.40
2024-04-11T22:50:20.673Z,14.50
2024-04-11T22:52:54.361Z,12.90
2024-04-11T22:55:25.270Z,14.70
2024-04-11T22:57:58.945Z,12.80
2024-04-11T23:00:29.962Z,12.70
2024-04-11T23:03:16.649Z,13.40
2024-04-11T23:05:54.351Z,12.00
2024-04-11T23:08:23.899Z,11.40
2024-04-11T23:10:52.628Z,13.50
2024-04-11T23:13:20.825Z,12.00
2024-04-11T23:15:49.711Z,13.80
2024-04-11T23:18:19.146Z,15.40
2024-04-11T23:20:48.535Z,12.10
2024-04-11T23:23:22.427Z,10.40
2024-04-11T23:25:52.297Z,12.10
2024-04-11T23:28:24.201Z,13.40
2024-04-11T23:30:53.674Z,11.40
2024-04-11T23:33:23.631Z,12.00
2024-04-11T23:36:07.421Z,13.00
2024-04-11T23:38:40.483Z,11.30
2024-04-11T23:41:11.820Z,12.60
2024-04-11T23:43:52.139Z,9.30
2024-04-11T23:46:33.844Z,12.80
2024-04-11T23:49:09.673Z,11.00
2024-04-11T23:51:46.415Z,10.00
2024-04-11T23:54:19.252Z,10.20
2024-04-11T23:56:48.692Z,8.80
2024-04-11T23:59:16.862Z,11.60
